createdAt,value
2018-05-15T00:00:40.822Z,0.00
2018-05-15T00:01:40.978Z,0.00
2018-05-15T00:02:41.146Z,0.00
2018-05-15T00:03:41.318Z,0.00
2018-05-15T00:04:41.491Z,0.00
2018-05-15T00:05:41.652Z,0.00
2018-05-15T00:06:41.818Z,0.00
2018-05-15T00:07:41.986Z,0.00
2018-05-15T00:08:42.150Z,0.00
2018-05-15T00:09:42.318Z,0.00
2018-05-15T00:10:42.480Z,0.00
2018-05-15T00:11:42.649Z,0.00
2018-05-15T00:12:42.815Z,0.00
2018-05-15T00:13:42.993Z,0.00
2018-05-15T00:14:43.185Z,0.00
2018-05-15T00:15:43.351Z,0.00
2018-05-15T00:16:43.521Z,0.00
2018-05-15T00:17:43.721Z,0.00
2018-05-15T00:18:43.877Z,0.00
2018-05-15T00:19:44.047Z,0.00
2018-05-15T00:20:44.224Z,0.00
2018-05-15T00:21:44.397Z,0.00
2018-05-15T00:22:44.547Z,0.00
2018-05-15T00:23:44.742Z,0.00
2018-05-15T00:24:44.885Z,0.00
2018-05-15T00:25:45.056Z,0.00
2018-05-15T00:26:45.232Z,0.00
2018-05-15T00:27:45.626Z,0.00
2018-05-15T00:28:45.563Z,0.00
2018-05-15T00:29:45.726Z,0.00
2018-05-15T00:30:45.893Z,0.00
2018-05-15T00:31:46.067Z,0.00
2018-05-15T00:32:46.260Z,0.00
2018-05-15T00:33:46.440Z,0.00
2018-05-15T00:34:46.633Z,0.00
2018-05-15T00:35:46.805Z,0.00
2018-05-15T00:36:46.962Z,0.00
2018-05-15T00:37:47.382Z,0.00
2018-05-15T00:38:47.330Z,0.00
2018-05-15T00:39:47.493Z,0.00
2018-05-15T00:40:47.676Z,0.00
2018-05-15T00:41:47.842Z,0.00
2018-05-15T00:42:47.986Z,0.00
2018-05-15T00:43:48.163Z,0.00
2018-05-15T00:44:48.333Z,0.00
2018-05-15T00:45:48.535Z,0.00
2018-05-15T00:46:48.664Z,0.00
2018-05-15T00:47:48.816Z,0.00
2018-05-15T00:48:49.034Z,0.00
2018-05-15T00:49:49.180Z,0.00
2018-05-15T00:50:49.359Z,0.00
2018-05-15T00:51:49.549Z,0.00
2018-05-15T00:52:49.687Z,0.00
2018-05-15T00:53:49.851Z,0.00
2018-05-15T00:54:50.035Z,0.00
2018-05-15T00:55:50.205Z,0.00
2018-05-15T00:56:50.381Z,0.00
2018-05-15T00:57:50.546Z,0.00
2018-05-15T00:58:50.741Z,0.00
2018-05-15T00:59:50.864Z,0.00
2018-05-15T01:00:51.060Z,0.00
2018-05-15T01:01:51.232Z,0.00
2018-05-15T01:02:51.394Z,0.00
2018-05-15T01:03:51.597Z,0.00
2018-05-15T01:04:51.746Z,0.00
2018-05-15T01:05:51.959Z,0.00
2018-05-15T01:06:52.131Z,0.00
2018-05-15T01:07:52.284Z,0.00
2018-05-15T01:08:52.462Z,0.00
2018-05-15T01:09:52.608Z,0.00
2018-05-15T01:10:52.787Z,0.00
2018-05-15T01:11:52.968Z,0.00
2018-05-15T01:12:53.134Z,0.00
2018-05-15T01:13:53.546Z,0.00
2018-05-15T01:14:53.457Z,0.00
2018-05-15T01:15:53.640Z,0.00
2018-05-15T01:16:53.811Z,0.00
2018-05-15T01:17:53.993Z,0.00
2018-05-15T01:18:54.158Z,0.00
2018-05-15T01:19:54.307Z,0.00
2018-05-15T01:20:54.480Z,0.00
2018-05-15T01:21:54.660Z,0.00
2018-05-15T01:22:54.827Z,0.00
2018-05-15T01:23:54.991Z,0.00
2018-05-15T01:24:55.155Z,0.00
2018-05-15T01:25:55.323Z,0.00
2018-05-15T01:26:55.738Z,0.00
2018-05-15T01:27:55.659Z,0.00
2018-05-15T01:28:55.839Z,0.00
2018-05-15T01:29:56.000Z,0.00
2018-05-15T01:30:56.173Z,0.00
2018-05-15T01:31:56.335Z,0.00
2018-05-15T01:32:56.527Z,0.00
2018-05-15T01:33:56.695Z,0.00
2018-05-15T01:34:56.869Z,0.00
2018-05-15T01:35:57.047Z,0.00
2018-05-15T01:36:57.226Z,0.00
2018-05-15T01:37:57.428Z,0.00
2018-05-15T01:38:57.554Z,0.00
2018-05-15T01:39:57.746Z,0.00
2018-05-15T01:40:57.929Z,0.00
2018-05-15T01:41:58.087Z,0.00
2018-05-15T01:42:58.252Z,0.00
2018-05-15T01:43:58.408Z,0.00
2018-05-15T01:44:58.602Z,0.00
2018-05-15T01:45:58.776Z,0.00
2018-05-15T01:46:58.965Z,0.00
2018-05-15T01:47:59.109Z,0.00
2018-05-15T01:48:59.276Z,0.00
2018-05-15T01:49:59.467Z,0.00
2018-05-15T01:50:59.631Z,0.00
2018-05-15T01:51:59.805Z,0.00
2018-05-15T01:52:59.978Z,0.00
2018-05-15T01:54:00.158Z,0.00
2018-05-15T01:55:00.334Z,0.00
2018-05-15T01:56:00.517Z,0.00
2018-05-15T01:57:00.665Z,0.00
2018-05-15T01:58:00.842Z,0.00
2018-05-15T01:59:01.011Z,0.00
2018-05-15T02:00:01.180Z,0.00
2018-05-15T02:01:01.332Z,0.00
2018-05-15T02:02:01.497Z,0.00
2018-05-15T02:03:01.678Z,0.00
2018-05-15T02:04:01.862Z,0.00
2018-05-15T02:05:02.030Z,0.00
2018-05-15T02:06:02.204Z,0.00
2018-05-15T02:07:02.365Z,0.00
2018-05-15T02:08:02.559Z,0.00
2018-05-15T02:09:02.719Z,0.00
2018-05-15T02:10:02.890Z,0.00
2018-05-15T02:11:03.060Z,0.00
2018-05-15T02:12:03.218Z,0.00
2018-05-15T02:14:03.604Z,0.00
2018-05-15T02:15:03.757Z,0.00
2018-05-15T02:16:03.941Z,0.00
2018-05-15T02:17:04.104Z,0.00
2018-05-15T02:18:04.260Z,0.00
2018-05-15T02:19:04.430Z,0.00
2018-05-15T02:20:04.584Z,0.00
2018-05-15T02:21:04.778Z,0.00
2018-05-15T02:22:04.926Z,0.00
2018-05-15T02:23:05.107Z,0.00
2018-05-15T02:24:05.262Z,0.00
2018-05-15T02:25:05.449Z,0.00
2018-05-15T02:26:05.638Z,0.00
2018-05-15T02:27:05.831Z,0.00
2018-05-15T02:28:05.970Z,0.00
2018-05-15T02:29:06.128Z,0.00
2018-05-15T02:30:06.298Z,0.00
2018-05-15T02:31:06.496Z,0.00
2018-05-15T02:32:06.632Z,0.00
2018-05-15T02:33:06.797Z,0.00
2018-05-15T02:34:06.956Z,0.00
2018-05-15T02:35:07.118Z,0.00
2018-05-15T02:36:07.627Z,0.00
2018-05-15T02:37:07.464Z,0.00
2018-05-15T02:38:07.642Z,0.00
2018-05-15T02:39:07.808Z,0.00
2018-05-15T02:40:07.987Z,0.00
2018-05-15T02:41:08.149Z,0.00
2018-05-15T02:42:08.321Z,0.00
2018-05-15T02:43:08.483Z,0.00
2018-05-15T02:44:08.674Z,0.00
2018-05-15T02:45:08.849Z,0.00
2018-05-15T02:46:09.362Z,0.00
2018-05-15T02:47:09.221Z,0.00
2018-05-15T02:48:09.403Z,0.00
2018-05-15T02:49:09.561Z,0.00
2018-05-15T02:50:09.732Z,0.00
2018-05-15T02:51:09.906Z,0.00
2018-05-15T02:52:10.072Z,0.00
2018-05-15T02:53:10.249Z,0.00
2018-05-15T02:54:10.400Z,0.00
2018-05-15T02:55:10.579Z,4.00
2018-05-15T02:56:10.755Z,4.00
2018-05-15T02:57:10.933Z,0.00
2018-05-15T02:58:11.102Z,0.00
2018-05-15T02:59:11.306Z,4.00
2018-05-15T03:00:11.461Z,0.00
2018-05-15T03:01:11.621Z,4.00
2018-05-15T03:02:11.794Z,4.00
2018-05-15T03:03:11.968Z,8.00
2018-05-15T03:04:12.160Z,4.00
2018-05-15T03:05:12.363Z,8.00
2018-05-15T03:06:12.507Z,8.00
2018-05-15T03:07:12.697Z,8.00
2018-05-15T03:08:12.840Z,12.00
2018-05-15T03:09:13.025Z,12.00
2018-05-15T03:10:13.184Z,16.00
2018-05-15T03:11:13.365Z,16.00
2018-05-15T03:12:13.539Z,20.00
2018-05-15T03:13:13.724Z,24.00
2018-05-15T03:14:13.876Z,24.00
2018-05-15T03:15:14.068Z,28.00
2018-05-15T03:16:14.216Z,32.00
2018-05-15T03:17:14.374Z,36.00
2018-05-15T03:18:14.541Z,40.00
2018-05-15T03:19:14.707Z,48.00
2018-05-15T03:20:15.176Z,52.00
2018-05-15T03:21:15.051Z,56.00
2018-05-15T03:22:15.239Z,64.00
2018-05-15T03:23:15.412Z,68.00
2018-05-15T03:24:15.573Z,72.00
2018-05-15T03:25:15.770Z,80.00
2018-05-15T03:26:15.938Z,88.00
2018-05-15T03:27:16.119Z,92.00
2018-05-15T03:28:16.379Z,100.00
2018-05-15T03:29:16.452Z,112.00
2018-05-15T03:30:16.629Z,116.00
2018-05-15T03:31:16.797Z,124.00
2018-05-15T03:33:17.140Z,144.00
2018-05-15T03:34:17.332Z,156.00
2018-05-15T03:35:17.560Z,164.00
2018-05-15T03:36:17.692Z,176.00
2018-05-15T03:37:17.848Z,188.00
2018-05-15T03:38:18.015Z,196.00
2018-05-15T03:39:18.203Z,208.00
2018-05-15T03:40:18.376Z,220.00
2018-05-15T03:41:18.562Z,228.00
2018-05-15T03:42:18.720Z,240.00
2018-05-15T03:43:18.896Z,248.00
2018-05-15T03:44:19.067Z,260.00
2018-05-15T03:45:19.246Z,272.00
2018-05-15T03:46:19.413Z,280.00
2018-05-15T03:47:19.588Z,296.00
2018-05-15T03:48:19.778Z,308.00
2018-05-15T03:49:19.927Z,328.00
2018-05-15T03:50:20.081Z,352.00
2018-05-15T03:51:20.270Z,376.00
2018-05-15T03:52:20.437Z,412.00
2018-05-15T03:53:20.580Z,444.00
2018-05-15T03:54:20.761Z,484.00
2018-05-15T03:56:21.093Z,584.00
2018-05-15T03:57:21.242Z,648.00
2018-05-15T03:58:21.416Z,716.00
2018-05-15T03:59:21.578Z,804.00
2018-05-15T04:00:21.742Z,888.00
2018-05-15T04:01:21.918Z,972.00
2018-05-15T04:02:22.100Z,1044.00
2018-05-15T04:03:22.267Z,1112.00
2018-05-15T04:04:22.437Z,1160.00
2018-05-15T04:05:22.599Z,1208.00
2018-05-15T04:06:22.775Z,1248.00
2018-05-15T04:07:22.954Z,1292.00
2018-05-15T04:08:23.160Z,1332.00
2018-05-15T04:09:23.329Z,1380.00
2018-05-15T04:10:23.470Z,1440.00
2018-05-15T04:11:23.636Z,1512.00
2018-05-15T04:12:23.804Z,1604.00
2018-05-15T04:13:23.977Z,1720.00
2018-05-15T04:14:24.146Z,2008.00
2018-05-15T04:15:24.302Z,4100.00
2018-05-15T04:16:24.506Z,6548.00
2018-05-15T04:17:24.635Z,8012.00
2018-05-15T04:18:24.820Z,9416.00
2018-05-15T04:19:25.217Z,10336.00
2018-05-15T04:20:25.136Z,10368.00
2018-05-15T04:21:25.549Z,9600.00
2018-05-15T04:22:25.477Z,8672.00
2018-05-15T04:23:25.617Z,8084.00
2018-05-15T04:24:25.780Z,7392.00
2018-05-15T04:25:25.961Z,6688.00
2018-05-15T04:26:26.128Z,6296.00
2018-05-15T04:27:26.296Z,5864.00
2018-05-15T04:28:26.559Z,5564.00
2018-05-15T04:29:26.639Z,5680.00
2018-05-15T04:30:26.818Z,5484.00
2018-05-15T04:31:26.997Z,5280.00
2018-05-15T04:32:27.162Z,5340.00
2018-05-15T04:33:27.315Z,5560.00
2018-05-15T04:34:27.489Z,5448.00
2018-05-15T04:35:27.654Z,4892.00
2018-05-15T04:36:27.841Z,4240.00
2018-05-15T04:37:28.021Z,3944.00
2018-05-15T04:38:28.195Z,3804.00
2018-05-15T04:39:28.354Z,3808.00
2018-05-15T04:40:28.537Z,3876.00
2018-05-15T04:41:28.705Z,4292.00
2018-05-15T04:42:28.898Z,4532.00
2018-05-15T04:43:29.054Z,4976.00
2018-05-15T04:45:29.368Z,6856.00
2018-05-15T04:46:29.565Z,7644.00
2018-05-15T04:47:29.749Z,7092.00
2018-05-15T04:48:29.924Z,6408.00
2018-05-15T04:49:30.131Z,6296.00
2018-05-15T04:50:30.267Z,6192.00
2018-05-15T04:51:30.455Z,6148.00
2018-05-15T04:52:30.644Z,5868.00
2018-05-15T04:53:30.800Z,6148.00
2018-05-15T04:54:30.981Z,7012.00
2018-05-15T04:55:31.160Z,7868.00
2018-05-15T04:56:31.338Z,8932.00
2018-05-15T04:57:31.538Z,9212.00
2018-05-15T04:58:31.696Z,9288.00
2018-05-15T04:59:31.846Z,8884.00
2018-05-15T05:00:32.019Z,8628.00
2018-05-15T05:01:32.199Z,9004.00
2018-05-15T05:02:32.362Z,9448.00
2018-05-15T05:03:32.548Z,10136.00
2018-05-15T05:04:32.703Z,10928.00
2018-05-15T05:05:32.884Z,11308.00
2018-05-15T05:06:33.048Z,12148.00
2018-05-15T05:07:33.550Z,12488.00
2018-05-15T05:08:33.390Z,11768.00
2018-05-15T05:09:33.559Z,11336.00
2018-05-15T05:10:33.730Z,11148.00
2018-05-15T05:11:33.908Z,11536.00
2018-05-15T05:12:34.089Z,12904.00
2018-05-15T05:13:34.266Z,14528.00
2018-05-15T05:14:34.419Z,15040.00
2018-05-15T05:15:34.593Z,14656.00
2018-05-15T05:16:34.775Z,14176.00
2018-05-15T05:17:34.963Z,14848.00
2018-05-15T05:18:35.105Z,15936.00
2018-05-15T05:19:35.271Z,16160.00
2018-05-15T05:20:35.439Z,16416.00
2018-05-15T05:21:35.605Z,17152.00
2018-05-15T05:22:35.776Z,16992.00
2018-05-15T05:23:35.943Z,17888.00
2018-05-15T05:24:36.123Z,18400.00
2018-05-15T05:25:36.295Z,20928.00
2018-05-15T05:26:36.449Z,21184.00
2018-05-15T05:27:36.623Z,14688.00
2018-05-15T05:28:36.779Z,17728.00
2018-05-15T05:29:36.968Z,19840.00
2018-05-15T05:31:37.304Z,18112.00
2018-05-15T05:32:37.503Z,20160.00
2018-05-15T05:33:37.678Z,20224.00
2018-05-15T05:34:37.855Z,21088.00
2018-05-15T05:35:38.039Z,22848.00
2018-05-15T05:36:38.220Z,20672.00
2018-05-15T05:37:38.405Z,17984.00
2018-05-15T05:38:38.589Z,16320.00
2018-05-15T05:39:38.768Z,14944.00
2018-05-15T05:40:38.960Z,16192.00
2018-05-15T05:41:39.139Z,14368.00
2018-05-15T05:42:39.326Z,16736.00
2018-05-15T05:43:39.517Z,18880.00
2018-05-15T05:44:39.698Z,17280.00
2018-05-15T05:45:39.891Z,15680.00
2018-05-15T05:46:40.070Z,12724.00
2018-05-15T05:47:40.249Z,12248.00
2018-05-15T05:48:40.441Z,12328.00
2018-05-15T05:49:40.623Z,11164.00
2018-05-15T05:50:40.809Z,13032.00
2018-05-15T05:51:40.988Z,10684.00
2018-05-15T05:52:41.173Z,10276.00
2018-05-15T05:53:41.361Z,9768.00
2018-05-15T05:54:41.549Z,10836.00
2018-05-15T05:55:41.735Z,10448.00
2018-05-15T05:56:41.917Z,10340.00
2018-05-15T05:57:42.099Z,11236.00
2018-05-15T05:58:42.291Z,11852.00
2018-05-15T05:59:42.476Z,11488.00
2018-05-15T06:00:42.655Z,13088.00
2018-05-15T06:01:42.839Z,16416.00
2018-05-15T06:02:43.028Z,16512.00
2018-05-15T06:03:43.215Z,17504.00
2018-05-15T06:04:43.393Z,18176.00
2018-05-15T06:05:43.579Z,19136.00
2018-05-15T06:06:43.768Z,21152.00
2018-05-15T06:07:43.956Z,22272.00
2018-05-15T06:08:44.141Z,22272.00
2018-05-15T06:09:44.323Z,17184.00
2018-05-15T06:10:44.511Z,20000.00
2018-05-15T06:11:44.701Z,20000.00
2018-05-15T06:12:44.879Z,17184.00
2018-05-15T06:13:45.067Z,16736.00
2018-05-15T06:14:45.253Z,12852.00
2018-05-15T06:15:45.442Z,12840.00
2018-05-15T06:16:45.631Z,12184.00
2018-05-15T06:17:45.814Z,10804.00
2018-05-15T06:18:45.993Z,10816.00
2018-05-15T06:19:46.178Z,9808.00
2018-05-15T06:20:46.449Z,9136.00
2018-05-15T06:21:46.551Z,8216.00
2018-05-15T06:22:46.746Z,8024.00
2018-05-15T06:23:46.929Z,7752.00
2018-05-15T06:24:47.097Z,6808.00
2018-05-15T06:26:47.455Z,7124.00
2018-05-15T06:27:47.638Z,8824.00
2018-05-15T06:28:47.827Z,7544.00
2018-05-15T06:29:48.016Z,6788.00
2018-05-15T06:30:48.503Z,6712.00
2018-05-15T06:31:48.383Z,6320.00
2018-05-15T06:32:48.573Z,6616.00
2018-05-15T06:33:48.757Z,6396.00
2018-05-15T06:34:48.946Z,6376.00
2018-05-15T06:35:49.124Z,6508.00
2018-05-15T06:36:49.307Z,6836.00
2018-05-15T06:37:49.496Z,6988.00
2018-05-15T06:38:49.682Z,7636.00
2018-05-15T06:39:49.865Z,7200.00
2018-05-15T06:40:50.048Z,7920.00
2018-05-15T06:41:50.241Z,7908.00
2018-05-15T06:42:50.415Z,8180.00
2018-05-15T06:43:50.606Z,9776.00
2018-05-15T06:44:50.851Z,9164.00
2018-05-15T06:45:50.974Z,9884.00
2018-05-15T06:46:51.439Z,9800.00
2018-05-15T06:47:51.339Z,12292.00
2018-05-15T06:48:51.522Z,11368.00
2018-05-15T06:49:51.705Z,15680.00
2018-05-15T06:50:51.892Z,17152.00
2018-05-15T06:51:52.081Z,21504.00
2018-05-15T06:52:52.271Z,25120.00
2018-05-15T06:53:52.439Z,25440.00
2018-05-15T06:54:52.624Z,24736.00
2018-05-15T06:55:52.806Z,24608.00
2018-05-15T06:57:53.173Z,21952.00
2018-05-15T06:58:53.352Z,21760.00
2018-05-15T06:59:53.538Z,17184.00
2018-05-15T07:00:53.725Z,26112.00
2018-05-15T07:01:53.971Z,26144.00
2018-05-15T07:02:54.102Z,25088.00
2018-05-15T07:03:54.284Z,23264.00
2018-05-15T07:04:54.471Z,23200.00
2018-05-15T07:05:54.662Z,23648.00
2018-05-15T07:06:54.843Z,23936.00
2018-05-15T07:07:55.032Z,22880.00
2018-05-15T07:08:55.219Z,21312.00
2018-05-15T07:09:55.405Z,21024.00
2018-05-15T07:10:55.595Z,20960.00
2018-05-15T07:11:55.782Z,20160.00
2018-05-15T07:12:55.968Z,17984.00
2018-05-15T07:13:56.237Z,18944.00
2018-05-15T07:14:56.342Z,20000.00
2018-05-15T07:15:56.535Z,18272.00
2018-05-15T07:16:56.726Z,18368.00
2018-05-15T07:17:56.918Z,18816.00
2018-05-15T07:18:57.098Z,17952.00
2018-05-15T07:19:57.287Z,16192.00
2018-05-15T07:20:57.472Z,15008.00
2018-05-15T07:21:57.666Z,14592.00
2018-05-15T07:22:57.860Z,15136.00
2018-05-15T07:23:58.086Z,15232.00
2018-05-15T07:24:58.233Z,15936.00
2018-05-15T07:25:58.421Z,16960.00
2018-05-15T07:26:58.611Z,16928.00
2018-05-15T07:27:58.817Z,15872.00
2018-05-15T07:28:58.986Z,14000.00
2018-05-15T07:29:59.180Z,13052.00
2018-05-15T07:30:59.360Z,14080.00
2018-05-15T07:31:59.549Z,14880.00
2018-05-15T07:32:59.742Z,14848.00
2018-05-15T07:33:59.932Z,13396.00
2018-05-15T07:35:00.104Z,13132.00
2018-05-15T07:36:00.292Z,12776.00
2018-05-15T07:37:00.480Z,13148.00
2018-05-15T07:38:00.668Z,13328.00
2018-05-15T07:39:01.175Z,13968.00
2018-05-15T07:40:01.039Z,13184.00
2018-05-15T07:41:01.240Z,12940.00
2018-05-15T07:42:01.470Z,12912.00
2018-05-15T07:43:01.612Z,12708.00
2018-05-15T07:44:01.800Z,11480.00
2018-05-15T07:45:02.005Z,11500.00
2018-05-15T07:46:02.173Z,11044.00
2018-05-15T07:47:02.362Z,10548.00
2018-05-15T07:48:02.550Z,10204.00
2018-05-15T07:49:02.736Z,10412.00
2018-05-15T07:50:02.931Z,10204.00
2018-05-15T07:51:03.112Z,9880.00
2018-05-15T07:52:03.304Z,10148.00
2018-05-15T07:53:03.490Z,9404.00
2018-05-15T07:54:03.679Z,9812.00
2018-05-15T07:56:04.046Z,9176.00
2018-05-15T07:57:04.237Z,9500.00
2018-05-15T07:58:04.418Z,10416.00
2018-05-15T07:59:04.606Z,10208.00
2018-05-15T08:00:04.795Z,10160.00
2018-05-15T08:01:04.982Z,10452.00
2018-05-15T08:02:05.180Z,9988.00
2018-05-15T08:04:05.539Z,7188.00
2018-05-15T08:05:05.726Z,5960.00
2018-05-15T08:06:05.917Z,6120.00
2018-05-15T08:07:06.100Z,7852.00
2018-05-15T08:08:06.285Z,8652.00
2018-05-15T08:09:06.479Z,8996.00
2018-05-15T08:10:06.659Z,10596.00
2018-05-15T08:11:06.849Z,9704.00
2018-05-15T08:12:07.039Z,8636.00
2018-05-15T08:13:07.220Z,8816.00
2018-05-15T08:14:07.408Z,8048.00
2018-05-15T08:15:07.599Z,7140.00
2018-05-15T08:16:07.785Z,6404.00
2018-05-15T08:17:07.971Z,7272.00
2018-05-15T08:18:08.163Z,7556.00
2018-05-15T08:19:08.360Z,8464.00
2018-05-15T08:20:08.533Z,8316.00
2018-05-15T08:21:08.718Z,9228.00
2018-05-15T08:22:08.928Z,8804.00
2018-05-15T08:23:09.090Z,9968.00
2018-05-15T08:24:09.604Z,9872.00
2018-05-15T08:25:09.461Z,9876.00
2018-05-15T08:26:09.652Z,9496.00
2018-05-15T08:27:09.840Z,8940.00
2018-05-15T08:28:10.026Z,8872.00
2018-05-15T08:29:10.210Z,9460.00
2018-05-15T08:30:10.395Z,8936.00
2018-05-15T08:31:10.579Z,8876.00
2018-05-15T08:32:10.768Z,8644.00
2018-05-15T08:33:10.957Z,8480.00
2018-05-15T08:35:11.320Z,9356.00
2018-05-15T08:36:11.504Z,9864.00
2018-05-15T08:37:11.690Z,9896.00
2018-05-15T08:38:11.881Z,10064.00
2018-05-15T08:39:12.080Z,10380.00
2018-05-15T08:40:12.259Z,10364.00
2018-05-15T08:41:12.426Z,10284.00
2018-05-15T08:42:12.616Z,10304.00
2018-05-15T08:43:12.797Z,10232.00
2018-05-15T08:44:12.991Z,9928.00
2018-05-15T08:45:13.187Z,9604.00
2018-05-15T08:46:13.363Z,9600.00
2018-05-15T08:47:13.551Z,9372.00
2018-05-15T08:48:13.737Z,9076.00
2018-05-15T08:49:13.934Z,8972.00
2018-05-15T08:50:14.108Z,8908.00
2018-05-15T08:51:14.302Z,8876.00
2018-05-15T08:52:14.490Z,9136.00
2018-05-15T08:53:14.669Z,9132.00
2018-05-15T08:54:14.863Z,9136.00
2018-05-15T08:55:15.053Z,9004.00
2018-05-15T08:56:15.241Z,8988.00
2018-05-15T08:57:15.424Z,8808.00
2018-05-15T08:58:15.609Z,8484.00
2018-05-15T08:59:15.799Z,8692.00
2018-05-15T09:00:15.992Z,8972.00
2018-05-15T09:01:16.179Z,9232.00
2018-05-15T09:02:16.369Z,9512.00
2018-05-15T09:03:16.558Z,9160.00
2018-05-15T09:04:16.741Z,8844.00
2018-05-15T09:05:16.938Z,8808.00
2018-05-15T09:06:17.119Z,8756.00
2018-05-15T09:07:17.329Z,8924.00
2018-05-15T09:08:17.498Z,9428.00
2018-05-15T09:09:17.686Z,8756.00
2018-05-15T09:10:17.871Z,9444.00
2018-05-15T09:11:18.082Z,9508.00
2018-05-15T09:12:18.248Z,8800.00
2018-05-15T09:18:27.320Z,9732.00
2018-05-15T09:19:27.472Z,10324.00
2018-05-15T09:20:28.102Z,10448.00
2018-05-15T09:21:27.644Z,10076.00
2018-05-15T09:22:27.784Z,9920.00
2018-05-15T09:23:27.965Z,9812.00
2018-05-15T09:24:28.142Z,9936.00
2018-05-15T09:25:28.351Z,9708.00
2018-05-15T09:26:28.509Z,9328.00
2018-05-15T09:27:28.682Z,9828.00
2018-05-15T09:28:28.854Z,9976.00
2018-05-15T09:29:29.070Z,10224.00
2018-05-15T09:30:29.218Z,10180.00
2018-05-15T09:31:29.376Z,9924.00
2018-05-15T09:32:29.555Z,10188.00
2018-05-15T09:33:29.731Z,5468.00
2018-05-15T09:34:29.926Z,5456.00
2018-05-15T09:35:30.155Z,5532.00
2018-05-15T09:36:30.432Z,9880.00
2018-05-15T09:37:30.470Z,9852.00
2018-05-15T09:38:30.658Z,8068.00
2018-05-15T09:39:30.877Z,9408.00
2018-05-15T09:40:31.025Z,10796.00
2018-05-15T09:41:31.253Z,11096.00
2018-05-15T09:42:31.452Z,9432.00
2018-05-15T09:43:31.879Z,6204.00
2018-05-15T09:44:31.859Z,6516.00
2018-05-15T09:45:31.992Z,5888.00
2018-05-15T09:46:32.181Z,6676.00
2018-05-15T09:47:32.389Z,5872.00
2018-05-15T09:48:32.564Z,6208.00
2018-05-15T09:49:32.706Z,5944.00
2018-05-15T09:50:33.167Z,6016.00
2018-05-15T09:51:33.113Z,6460.00
2018-05-15T09:52:34.260Z,10368.00
2018-05-15T09:53:33.641Z,10060.00
2018-05-15T09:54:33.578Z,9716.00
2018-05-15T09:55:33.972Z,8240.00
2018-05-15T09:56:33.971Z,7640.00
2018-05-15T09:57:34.160Z,6988.00
2018-05-15T09:58:34.375Z,8428.00
2018-05-15T09:59:34.562Z,8316.00
2018-05-15T10:00:34.714Z,8068.00
2018-05-15T10:01:34.926Z,7752.00
2018-05-15T10:02:35.129Z,7832.00
2018-05-15T10:03:35.322Z,6752.00
2018-05-15T10:04:35.466Z,6804.00
2018-05-15T10:05:35.714Z,6904.00
2018-05-15T10:06:35.856Z,6672.00
2018-05-15T10:07:36.091Z,8672.00
2018-05-15T10:08:36.151Z,6524.00
2018-05-15T10:09:36.320Z,8508.00
2018-05-15T10:10:36.522Z,8276.00
2018-05-15T10:11:39.418Z,8308.00
2018-05-15T10:12:36.926Z,6080.00
2018-05-15T10:13:37.141Z,5592.00
2018-05-15T10:14:37.285Z,5780.00
2018-05-15T10:15:37.469Z,5672.00
2018-05-15T10:16:37.647Z,5264.00
2018-05-15T10:17:37.853Z,6444.00
2018-05-15T10:18:38.029Z,4964.00
2018-05-15T10:19:40.609Z,4740.00
2018-05-15T10:20:38.411Z,4480.00
2018-05-15T10:21:38.627Z,5276.00
2018-05-15T10:22:38.801Z,5216.00
2018-05-15T10:23:39.128Z,4564.00
2018-05-15T10:25:39.376Z,4652.00
2018-05-15T10:26:39.574Z,4808.00
2018-05-15T10:27:39.774Z,5016.00
2018-05-15T10:28:39.949Z,5148.00
2018-05-15T10:29:40.120Z,5220.00
2018-05-15T10:30:40.306Z,5284.00
2018-05-15T10:31:40.525Z,6660.00
2018-05-15T10:32:40.684Z,6124.00
2018-05-15T10:33:40.862Z,6572.00
2018-05-15T10:34:41.110Z,6884.00
2018-05-15T10:35:41.234Z,6656.00
2018-05-15T10:36:41.397Z,5352.00
2018-05-15T10:37:41.577Z,5364.00
2018-05-15T10:38:41.788Z,5356.00
2018-05-15T10:39:41.986Z,5336.00
2018-05-15T10:40:42.130Z,5524.00
2018-05-15T10:41:42.288Z,5852.00
2018-05-15T10:42:42.492Z,4892.00
2018-05-15T10:43:42.673Z,4900.00
2018-05-15T10:44:42.839Z,5300.00
2018-05-15T10:45:42.999Z,5192.00
2018-05-15T10:46:43.192Z,4952.00
2018-05-15T10:47:43.386Z,5280.00
2018-05-15T10:49:43.714Z,4720.00
2018-05-15T10:50:44.195Z,5144.00
2018-05-15T10:51:44.114Z,5020.00
2018-05-15T10:52:44.337Z,6000.00
2018-05-15T10:53:44.559Z,6212.00
2018-05-15T10:54:44.674Z,6396.00
2018-05-15T10:55:44.787Z,6612.00
2018-05-15T10:56:44.971Z,6992.00
2018-05-15T10:57:45.217Z,7112.00
2018-05-15T10:58:45.425Z,7112.00
2018-05-15T10:59:45.583Z,6796.00
2018-05-15T11:00:45.755Z,6728.00
2018-05-15T11:01:45.963Z,6840.00
2018-05-15T11:02:46.099Z,6932.00
2018-05-15T11:03:46.517Z,6264.00
2018-05-15T11:04:46.568Z,5184.00
2018-05-15T11:05:46.672Z,4900.00
2018-05-15T11:06:46.893Z,5700.00
2018-05-15T11:07:47.047Z,4236.00
2018-05-15T11:08:47.213Z,3496.00
2018-05-15T11:09:47.408Z,3136.00
2018-05-15T11:10:47.585Z,2820.00
2018-05-15T11:11:47.781Z,2572.00
2018-05-15T11:12:48.150Z,2368.00
2018-05-15T11:13:48.168Z,2180.00
2018-05-15T11:14:48.400Z,2016.00
2018-05-15T11:15:48.596Z,1864.00
2018-05-15T11:16:48.770Z,1768.00
2018-05-15T11:17:48.974Z,1688.00
2018-05-15T11:18:49.170Z,1588.00
2018-05-15T11:19:49.450Z,1472.00
2018-05-15T11:20:49.647Z,1368.00
2018-05-15T11:21:49.764Z,1272.00
2018-05-15T11:22:49.922Z,1204.00
2018-05-15T11:23:50.140Z,1148.00
2018-05-15T11:24:50.295Z,1124.00
2018-05-15T11:25:51.190Z,1116.00
2018-05-15T11:26:50.725Z,1124.00
2018-05-15T11:27:50.864Z,1124.00
2018-05-15T11:28:51.071Z,1128.00
2018-05-15T11:29:51.251Z,1140.00
2018-05-15T11:30:51.436Z,1140.00
2018-05-15T11:31:51.677Z,1132.00
2018-05-15T11:32:51.913Z,1132.00
2018-05-15T11:33:51.992Z,1132.00
2018-05-15T11:34:52.208Z,1152.00
2018-05-15T11:35:52.446Z,1188.00
2018-05-15T11:36:52.590Z,1268.00
2018-05-15T11:37:53.085Z,1376.00
2018-05-15T11:38:52.973Z,1500.00
2018-05-15T11:39:53.134Z,1604.00
2018-05-15T11:40:53.276Z,1712.00
2018-05-15T11:41:53.584Z,1832.00
2018-05-15T11:42:53.681Z,1932.00
2018-05-15T11:43:53.872Z,2032.00
2018-05-15T11:44:54.060Z,2116.00
2018-05-15T11:45:54.226Z,2200.00
2018-05-15T11:46:54.370Z,2312.00
2018-05-15T11:47:55.043Z,2460.00
2018-05-15T11:48:55.228Z,2600.00
2018-05-15T11:49:55.699Z,2748.00
2018-05-15T11:50:55.898Z,2912.00
2018-05-15T11:51:56.158Z,3064.00
2018-05-15T11:52:56.296Z,3212.00
2018-05-15T11:53:55.722Z,3388.00
2018-05-15T11:54:55.811Z,3572.00
2018-05-15T11:55:56.038Z,3820.00
2018-05-15T11:56:56.157Z,4200.00
2018-05-15T11:57:56.396Z,5704.00
2018-05-15T11:58:56.584Z,6104.00
2018-05-15T11:59:56.886Z,6448.00
2018-05-15T12:00:57.080Z,6404.00
2018-05-15T12:01:57.214Z,6536.00
2018-05-15T12:02:57.454Z,5768.00
2018-05-15T12:03:57.596Z,4860.00
2018-05-15T12:04:57.769Z,4676.00
2018-05-15T12:05:57.907Z,4588.00
2018-05-15T12:06:58.103Z,5288.00
2018-05-15T12:07:58.416Z,4436.00
2018-05-15T12:08:58.566Z,4368.00
2018-05-15T12:09:58.721Z,4348.00
2018-05-15T12:10:58.884Z,4356.00
2018-05-15T12:11:59.121Z,3960.00
2018-05-15T12:12:59.248Z,3604.00
2018-05-15T12:13:59.470Z,3268.00
2018-05-15T12:14:59.672Z,3064.00
2018-05-15T12:15:59.924Z,2932.00
2018-05-15T12:17:00.593Z,2864.00
2018-05-15T12:18:02.184Z,2824.00
2018-05-15T12:19:00.329Z,3768.00
2018-05-15T12:20:00.516Z,4652.00
2018-05-15T12:21:00.804Z,2788.00
2018-05-15T12:22:00.870Z,2628.00
2018-05-15T12:23:01.066Z,2604.00
2018-05-15T12:24:01.279Z,2664.00
2018-05-15T12:25:01.421Z,2752.00
2018-05-15T12:26:01.865Z,2800.00
2018-05-15T12:27:01.780Z,2868.00
2018-05-15T12:28:01.993Z,2936.00
2018-05-15T12:29:02.171Z,3000.00
2018-05-15T12:30:02.387Z,3084.00
2018-05-15T12:31:02.577Z,3212.00
2018-05-15T12:32:02.730Z,3344.00
2018-05-15T12:33:02.951Z,3456.00
2018-05-15T12:34:03.089Z,3512.00
2018-05-15T12:35:03.277Z,3532.00
2018-05-15T12:36:03.568Z,3576.00
2018-05-15T12:37:03.744Z,3732.00
2018-05-15T12:38:03.848Z,4036.00
2018-05-15T12:39:03.976Z,3996.00
2018-05-15T12:40:04.176Z,4140.00